Time;durP1;ratioP1;P1;durP2;ratioP2;P2;SDS_P1;SDS_P2;PMS_P1;PMS_P2;Temp;Humidity;BMP_temperature;BMP_pressure;BME280_temperature;BME280_humidity;BME280_pressure;Samples;Min_cycle;Max_cycle;Signal;HPM_P1;HPM_P2
2022/10/10 00:00:28;;;;;;;35.70;19.90;;;;;;;2.12;91.42;101704.61;88565;1301;22056;-75
2022/10/10 00:02:54;;;;;;;31.10;18.40;;;;;;;2.10;91.34;101700.80;88579;1308;22037;-75
2022/10/10 00:04:59;;;;;;;31.50;19.80;;;;;;;2.08;91.33;101694.74;88596;1305;22055;-77
2022/10/10 00:07:05;;;;;;;30.30;17.30;;;;;;;2.07;91.51;101698.52;88778;1292;22041;-77
2022/10/10 00:09:10;;;;;;;31.90;20.70;;;;;;;2.06;91.30;101701.94;88781;1296;22062;-78
2022/10/10 00:11:17;;;;;;;31.50;18.60;;;;;;;2.04;91.25;101704.30;88797;1293;22044;-77
2022/10/10 00:13:23;;;;;;;34.50;20.00;;;;;;;2.02;91.49;101701.86;88816;1291;21989;-77
2022/10/10 00:15:29;;;;;;;27.50;19.10;;;;;;;2.00;91.44;101700.29;88577;1309;22108;-75
2022/10/10 00:17:34;;;;;;;31.90;18.40;;;;;;;1.99;91.54;101705.93;88563;1304;22100;-75
2022/10/10 00:19:41;;;;;;;30.60;18.70;;;;;;;1.98;91.41;101702.65;88796;1297;22033;-76
2022/10/10 00:21:47;;;;;;;28.50;18.60;;;;;;;1.97;91.64;101702.81;88682;1299;22081;-76
2022/10/10 00:23:52;;;;;;;26.90;18.90;;;;;;;1.96;91.56;101698.66;88577;1302;22111;-76
2022/10/10 00:25:58;;;;;;;29.30;18.40;;;;;;;1.94;91.54;101698.45;88594;1304;22659;-75
2022/10/10 00:28:04;;;;;;;30.60;18.40;;;;;;;1.93;91.65;101697.92;88820;1296;22011;-75
2022/10/10 00:30:12;;;;;;;30.70;18.80;;;;;;;1.92;91.65;101696.86;88843;1297;22204;-76
2022/10/10 00:32:17;;;;;;;26.60;17.10;;;;;;;1.90;91.75;101694.25;88804;1287;22054;-76
2022/10/10 00:34:23;;;;;;;30.20;18.40;;;;;;;1.90;91.75;101701.98;88583;1304;22070;-76
2022/10/10 00:36:29;;;;;;;27.40;17.40;;;;;;;1.88;91.79;101699.36;88579;1304;22068;-76
2022/10/10 00:38:35;;;;;;;26.90;17.70;;;;;;;1.88;91.78;101696.27;88810;1296;22040;-76
2022/10/10 00:40:47;;;;;;;32.90;16.60;;;;;;;1.86;91.88;101693.83;88049;1296;1002564;-77
2022/10/10 00:42:53;;;;;;;32.80;17.90;;;;;;;1.87;92.01;101698.30;88697;1300;22692;-77
2022/10/10 00:45:22;;;;;;;28.40;18.50;;;;;;;1.87;91.92;101695.20;88802;1286;22042;-76
2022/10/10 00:47:28;;;;;;;28.30;18.60;;;;;;;1.86;92.14;101697.42;88790;1296;22104;-75
2022/10/10 00:49:34;;;;;;;32.50;18.90;;;;;;;1.86;92.26;101696.39;88826;1284;22125;-75
2022/10/10 00:51:40;;;;;;;27.60;17.90;;;;;;;1.88;92.22;101698.68;88565;1304;22697;-75
2022/10/10 00:53:46;;;;;;;31.40;19.00;;;;;;;1.89;92.50;101694.41;88782;1293;22030;-75
2022/10/10 00:55:52;;;;;;;23.70;16.30;;;;;;;1.90;92.40;101689.24;88580;1304;22042;-76
2022/10/10 00:57:58;;;;;;;26.80;17.70;;;;;;;1.89;92.18;101688.36;88572;1304;22079;-76
2022/10/10 01:00:04;;;;;;;24.40;16.20;;;;;;;1.86;92.26;101687.98;88575;1304;22054;-76
2022/10/10 01:02:10;;;;;;;27.70;17.50;;;;;;;1.84;92.03;101691.72;88787;1288;22058;-76
2022/10/10 01:04:33;;;;;;;29.00;17.20;;;;;;;1.82;91.93;101687.73;88593;1305;22198;-76
2022/10/10 01:06:38;;;;;;;28.00;17.60;;;;;;;1.78;91.90;101689.37;88593;1304;22105;-76
2022/10/10 01:08:44;;;;;;;27.20;17.00;;;;;;;1.75;91.80;101690.52;88585;1304;22055;-76
2022/10/10 01:11:03;;;;;;;23.40;16.40;;;;;;;1.72;91.86;101693.56;88832;1285;22109;-75
2022/10/10 01:13:17;;;;;;;24.10;16.40;;;;;;;1.69;91.91;101700.38;88572;1299;22675;-75
2022/10/10 01:15:27;;;;;;;23.80;15.60;;;;;;;1.66;91.79;101700.83;88083;1292;1002267;-76
2022/10/10 01:17:37;;;;;;;26.60;16.70;;;;;;;1.64;91.82;101698.04;88808;1289;22661;-76
2022/10/10 01:20:43;;;;;;;24.10;16.20;;;;;;;1.62;91.96;101701.10;88565;1304;22667;-76
2022/10/10 01:23:09;;;;;;;23.80;15.90;;;;;;;1.59;91.94;101699.30;88468;1304;22069;-76
2022/10/10 01:25:22;;;;;;;30.00;16.10;;;;;;;1.57;92.01;101693.42;88589;1304;22138;-76
2022/10/10 01:27:31;;;;;;;28.40;18.30;;;;;;;1.54;91.97;101694.23;88573;1301;22052;-77
2022/10/10 01:29:40;;;;;;;28.20;17.10;;;;;;;1.53;92.04;101695.42;88802;1296;22030;-77
2022/10/10 01:31:48;;;;;;;25.90;16.70;;;;;;;1.52;92.17;101694.17;88466;1301;22121;-78
2022/10/10 01:34:00;;;;;;;23.50;15.30;;;;;;;1.50;92.19;101696.91;88729;1299;22146;-78
2022/10/10 01:36:08;;;;;;;23.70;15.80;;;;;;;1.47;92.01;101694.11;88504;1305;22099;-77
2022/10/10 01:38:29;;;;;;;23.30;16.10;;;;;;;1.46;92.10;101702.48;88587;1304;22059;-77
2022/10/10 01:40:41;;;;;;;26.30;16.80;;;;;;;1.45;92.17;101704.36;88798;1297;22717;-75
2022/10/10 01:42:50;;;;;;;23.50;16.30;;;;;;;1.44;92.06;101705.20;88793;1294;22176;-75
2022/10/10 01:44:55;;;;;;;23.00;15.90;;;;;;;1.42;92.10;101702.59;88596;1299;22092;-76
2022/10/10 01:47:01;;;;;;;34.20;17.70;;;;;;;1.41;92.14;101701.19;88587;1304;22058;-76
2022/10/10 01:49:06;;;;;;;27.30;17.40;;;;;;;1.40;92.26;101698.42;88692;1286;22078;-76
2022/10/10 01:51:27;;;;;;;24.50;16.30;;;;;;;1.39;92.33;101694.45;88858;1296;22058;-77
2022/10/10 01:53:38;;;;;;;26.30;17.10;;;;;;;1.37;92.21;101693.53;88598;1301;22659;-77
2022/10/10 01:55:56;;;;;;;26.80;17.50;;;;;;;1.36;92.32;101693.34;88725;1299;22137;-77
2022/10/10 01:58:12;;;;;;;26.00;16.10;;;;;;;1.36;92.44;101688.52;88597;1304;22073;-77
2022/10/10 02:00:18;;;;;;;25.70;16.00;;;;;;;1.34;92.47;101685.23;88811;1296;22741;-75
2022/10/10 02:02:31;;;;;;;23.20;15.40;;;;;;;1.34;92.41;101681.95;88806;1291;21993;-75
2022/10/10 02:04:40;;;;;;;23.10;15.70;;;;;;;1.32;92.42;101685.88;88797;1286;22052;-75
2022/10/10 02:06:49;;;;;;;21.50;14.70;;;;;;;1.32;92.41;101685.52;88785;1287;22577;-75
2022/10/10 02:08:57;;;;;;;28.80;16.20;;;;;;;1.31;92.52;101688.77;87819;1304;1002292;-75
2022/10/10 02:11:05;;;;;;;24.20;16.00;;;;;;;1.30;92.52;101692.02;88590;1304;22069;-75
2022/10/10 02:13:10;;;;;;;25.60;16.10;;;;;;;1.29;92.63;101689.25;88578;1298;22040;-75
2022/10/10 02:15:18;;;;;;;26.00;16.50;;;;;;;1.29;92.68;101689.75;88577;1304;22683;-76
2022/10/10 02:17:24;;;;;;;26.70;16.20;;;;;;;1.28;92.69;101687.16;88572;1304;22621;-76
2022/10/10 02:19:30;;;;;;;23.30;15.40;;;;;;;1.28;92.60;101687.68;88575;1297;22093;-76
2022/10/10 02:21:35;;;;;;;21.50;15.10;;;;;;;1.27;92.74;101688.01;88572;1304;22073;-76
2022/10/10 02:23:41;;;;;;;26.00;16.50;;;;;;;1.26;92.73;101689.02;88809;1286;22046;-77
2022/10/10 02:25:50;;;;;;;21.30;14.80;;;;;;;1.25;92.54;101692.61;88565;1291;22639;-75
2022/10/10 02:28:02;;;;;;;23.80;15.40;;;;;;;1.24;92.71;101693.44;88788;1289;22067;-75
2022/10/10 02:30:10;;;;;;;20.40;15.20;;;;;;;1.24;92.74;101689.66;88595;1288;22104;-75
2022/10/10 02:32:19;;;;;;;26.00;16.60;;;;;;;1.24;92.80;101688.45;88606;1298;22123;-75
2022/10/10 02:34:25;;;;;;;25.60;15.10;;;;;;;1.23;92.61;101687.23;88610;1304;22192;-75
2022/10/10 02:36:31;;;;;;;22.10;14.50;;;;;;;1.22;92.80;101679.48;88634;1304;22075;-76
2022/10/10 02:38:37;;;;;;;22.50;15.50;;;;;;;1.22;92.90;101673.80;88834;1296;22054;-76
2022/10/10 02:40:44;;;;;;;24.00;15.00;;;;;;;1.23;93.05;101669.20;88339;1294;1002102;-76
2022/10/10 02:42:50;;;;;;;25.70;15.70;;;;;;;1.28;93.58;101662.92;88609;1298;22201;-76
2022/10/10 02:44:55;;;;;;;23.60;16.20;;;;;;;1.34;93.84;101661.15;88587;1302;22048;-77
2022/10/10 02:47:01;;;;;;;27.10;16.60;;;;;;;1.39;94.16;101658.52;88752;1299;22771;-77
2022/10/10 02:49:09;;;;;;;27.70;17.20;;;;;;;1.44;94.23;101663.26;88803;1292;22663;-77
2022/10/10 02:51:15;;;;;;;29.60;17.60;;;;;;;1.48;94.41;101665.58;88593;1306;22745;-76
2022/10/10 02:53:20;;;;;;;25.50;16.90;;;;;;;1.52;94.66;101660.30;88776;1289;22034;-76
2022/10/10 02:55:26;;;;;;;28.70;16.90;;;;;;;1.56;94.62;101662.80;88790;1296;22277;-76
2022/10/10 02:57:32;;;;;;;27.30;16.80;;;;;;;1.60;94.57;101666.48;88474;1306;22960;-75
2022/10/10 02:59:40;;;;;;;22.90;14.40;;;;;;;1.62;94.71;101665.84;88412;1306;22096;-75
2022/10/10 03:01:46;;;;;;;25.70;16.00;;;;;;;1.64;94.58;101662.44;88572;1298;22066;-75
2022/10/10 03:03:51;;;;;;;22.80;15.00;;;;;;;1.65;94.58;101661.59;88572;1306;22068;-76
2022/10/10 03:05:57;;;;;;;27.10;17.30;;;;;;;1.66;94.53;101659.38;88573;1304;22084;-76
2022/10/10 03:08:03;;;;;;;22.30;15.20;;;;;;;1.66;94.44;101659.20;88794;1294;22578;-75
2022/10/10 03:10:10;;;;;;;24.20;16.80;;;;;;;1.66;94.49;101660.06;88811;1296;22122;-75
2022/10/10 03:12:15;;;;;;;26.70;15.20;;;;;;;1.65;94.27;101662.11;88581;1298;22065;-75
2022/10/10 03:14:21;;;;;;;22.30;14.50;;;;;;;1.64;94.14;101665.20;88790;1296;22034;-75
2022/10/10 03:16:26;;;;;;;22.90;14.80;;;;;;;1.62;93.92;101669.10;88570;1304;22048;-75
2022/10/10 03:18:32;;;;;;;29.30;14.90;;;;;;;1.59;93.97;101669.04;88602;1294;22071;-75
2022/10/10 03:20:38;;;;;;;19.80;14.00;;;;;;;1.57;93.81;101666.25;88590;1304;22146;-75
2022/10/10 03:22:44;;;;;;;22.00;15.80;;;;;;;1.54;93.75;101663.44;88812;1296;22683;-75
2022/10/10 03:24:49;;;;;;;26.70;15.90;;;;;;;1.52;93.77;101667.54;88822;1286;22056;-76
2022/10/10 03:26:55;;;;;;;23.20;14.80;;;;;;;1.51;94.01;101665.96;88579;1297;22156;-77
2022/10/10 03:29:02;;;;;;;26.20;15.70;;;;;;;1.52;93.93;101667.88;88584;1306;22073;-77
2022/10/10 03:31:08;;;;;;;20.70;13.40;;;;;;;1.51;94.08;101665.96;88829;1297;22133;-76
2022/10/10 03:33:14;;;;;;;23.10;15.00;;;;;;;1.51;94.17;101665.10;88573;1304;22063;-76
2022/10/10 03:35:20;;;;;;;25.40;16.00;;;;;;;1.53;94.49;101664.31;88668;1286;22093;-75
2022/10/10 03:37:26;;;;;;;25.00;14.20;;;;;;;1.60;94.82;101663.39;88594;1291;22081;-75
2022/10/10 03:39:31;;;;;;;23.00;16.00;;;;;;;1.63;95.02;101661.41;88571;1304;22072;-75
2022/10/10 03:41:37;;;;;;;24.20;15.70;;;;;;;1.68;95.20;101661.31;88614;1299;22076;-76
2022/10/10 03:43:42;;;;;;;22.80;16.50;;;;;;;1.73;95.60;101659.34;88785;1296;22040;-77
2022/10/10 03:45:48;;;;;;;25.30;15.80;;;;;;;1.80;95.90;101660.51;88690;1299;22102;-75
2022/10/10 03:47:54;;;;;;;24.40;15.70;;;;;;;1.87;96.09;101664.05;88602;1298;22059;-75
2022/10/10 03:49:59;;;;;;;24.30;15.70;;;;;;;1.92;96.22;101666.05;88686;1299;22689;-76
2022/10/10 03:52:05;;;;;;;27.00;15.20;;;;;;;1.98;96.42;101666.34;88590;1303;22098;-77
2022/10/10 03:54:11;;;;;;;26.80;16.90;;;;;;;2.04;96.45;101661.45;88601;1298;22051;-78
2022/10/10 03:56:19;;;;;;;30.80;16.10;;;;;;;2.08;96.37;101657.91;88612;1303;22075;-75
2022/10/10 03:58:24;;;;;;;27.40;16.80;;;;;;;2.12;96.40;101657.45;88804;1296;22048;-75
2022/10/10 04:00:30;;;;;;;28.30;16.80;;;;;;;2.16;96.30;101656.31;88839;1286;22038;-76
2022/10/10 04:02:37;;;;;;;28.50;15.60;;;;;;;2.21;96.54;101657.09;88835;1287;22322;-76
2022/10/10 04:04:42;;;;;;;29.00;17.20;;;;;;;2.27;96.86;101655.64;88452;1298;22650;-76
2022/10/10 04:06:48;;;;;;;23.40;16.60;;;;;;;2.34;97.20;101657.48;88611;1296;22075;-75
2022/10/10 04:08:53;;;;;;;24.80;16.70;;;;;;;2.41;97.33;101658.80;88611;1303;22118;-75
2022/10/10 04:10:59;;;;;;;24.40;16.30;;;;;;;2.47;97.54;101658.56;88623;1303;22624;-77
2022/10/10 04:13:05;;;;;;;23.90;16.70;;;;;;;2.51;97.27;101655.71;88103;1288;1002724;-77
2022/10/10 04:15:11;;;;;;;23.30;15.10;;;;;;;2.54;97.37;101652.63;88613;1298;22109;-76
2022/10/10 04:17:17;;;;;;;28.10;16.90;;;;;;;2.57;97.42;101651.31;88806;1296;22591;-76
2022/10/10 04:19:23;;;;;;;25.60;16.60;;;;;;;2.60;97.26;101651.17;88453;1306;22115;-76
2022/10/10 04:21:29;;;;;;;26.10;15.60;;;;;;;2.63;97.33;101652.42;88815;1296;22049;-76
2022/10/10 04:23:34;;;;;;;25.00;16.40;;;;;;;2.65;97.28;101654.16;88802;1296;22023;-75
2022/10/10 04:25:41;;;;;;;29.20;18.30;;;;;;;2.67;97.46;101651.11;88703;1290;22098;-75
2022/10/10 04:27:46;;;;;;;28.00;17.30;;;;;;;2.69;97.54;101654.23;88808;1288;22028;-75
2022/10/10 04:29:52;;;;;;;28.20;16.70;;;;;;;2.72;97.50;101657.05;88686;1299;22063;-76
2022/10/10 04:31:57;;;;;;;27.90;16.40;;;;;;;2.75;97.63;101658.27;88693;1299;22245;-78
2022/10/10 04:34:03;;;;;;;25.50;16.50;;;;;;;2.78;97.58;101655.58;88605;1298;22797;-78
2022/10/10 04:36:09;;;;;;;22.80;15.70;;;;;;;2.80;97.69;101655.27;88615;1303;22107;-76
2022/10/10 04:38:14;;;;;;;25.30;15.20;;;;;;;2.84;97.89;101653.93;88810;1286;22097;-75
2022/10/10 04:40:20;;;;;;;27.20;16.00;;;;;;;2.89;98.28;101653.66;88825;1287;22039;-75
2022/10/10 04:42:25;;;;;;;30.70;16.90;;;;;;;2.97;98.66;101654.64;88592;1304;22163;-75
2022/10/10 04:44:31;;;;;;;24.20;15.60;;;;;;;3.03;98.67;101646.97;88838;1296;22763;-75
2022/10/10 04:46:37;;;;;;;27.50;15.80;;;;;;;3.07;98.58;101648.06;88828;1286;22021;-76
2022/10/10 04:48:43;;;;;;;28.80;17.10;;;;;;;3.10;98.51;101649.48;88631;1303;22488;-76
2022/10/10 04:50:53;;;;;;;24.70;15.70;;;;;;;3.14;98.56;101644.34;88700;1299;22699;-76
2022/10/10 04:52:59;;;;;;;27.30;16.50;;;;;;;3.17;98.31;101641.80;88619;1303;22737;-76
2022/10/10 04:55:05;;;;;;;21.10;14.70;;;;;;;3.18;98.27;101639.05;88628;1298;22066;-76
2022/10/10 04:57:11;;;;;;;24.20;16.40;;;;;;;3.18;98.07;101641.12;88801;1284;22501;-76
2022/10/10 04:59:18;;;;;;;18.90;13.40;;;;;;;3.16;97.75;101640.41;88808;1296;22086;-76
2022/10/10 05:01:24;;;;;;;22.20;14.20;;;;;;;3.15;97.62;101641.08;88820;1287;22035;-76
2022/10/10 05:03:29;;;;;;;20.10;13.90;;;;;;;3.12;97.45;101651.39;88601;1303;22148;-76
2022/10/10 05:05:35;;;;;;;18.80;13.10;;;;;;;3.09;96.94;101647.03;88810;1296;22019;-77
2022/10/10 05:07:41;;;;;;;20.10;12.90;;;;;;;3.05;97.10;101645.27;88811;1285;22680;-77
2022/10/10 05:09:47;;;;;;;20.30;13.50;;;;;;;3.02;96.83;101644.88;88802;1281;22072;-77
2022/10/10 05:11:53;;;;;;;21.80;14.20;;;;;;;3.00;96.81;101651.08;88834;1283;22051;-77
2022/10/10 05:13:58;;;;;;;22.60;13.70;;;;;;;3.00;96.95;101653.80;88583;1291;288420;-77
2022/10/10 05:16:04;;;;;;;23.50;13.60;;;;;;;3.01;97.18;101659.17;88685;1299;22137;-76
2022/10/10 05:18:10;;;;;;;19.90;14.20;;;;;;;3.02;97.13;101663.33;88580;1304;22087;-76
2022/10/10 05:20:16;;;;;;;22.10;13.20;;;;;;;3.03;97.38;101657.98;88602;1299;22040;-75
2022/10/10 05:22:22;;;;;;;22.60;14.40;;;;;;;3.05;97.29;101662.70;88697;1299;22102;-76
2022/10/10 05:24:31;;;;;;;25.00;14.20;;;;;;;3.09;97.40;101663.41;88608;1304;22628;-76
2022/10/10 05:26:43;;;;;;;21.70;12.60;;;;;;;3.13;97.61;101654.85;88729;1294;22104;-76
2022/10/10 05:28:49;;;;;;;21.10;13.60;;;;;;;3.15;97.54;101657.12;88595;1285;22586;-76
2022/10/10 05:30:56;;;;;;;22.00;14.30;;;;;;;3.18;97.58;101651.12;88819;1287;22069;-77
2022/10/10 05:33:05;;;;;;;18.40;13.40;;;;;;;3.21;97.65;101650.99;88831;1284;22066;-76
2022/10/10 05:35:17;;;;;;;23.80;15.90;;;;;;;3.25;97.94;101644.67;88626;1304;22121;-76
2022/10/10 05:37:26;;;;;;;25.00;16.20;;;;;;;3.33;98.12;101640.97;88827;1287;22044;-76
2022/10/10 05:39:32;;;;;;;26.40;16.50;;;;;;;3.43;98.29;101636.08;88614;1298;22060;-77
2022/10/10 05:41:38;;;;;;;26.60;16.30;;;;;;;3.66;99.38;101636.85;88823;1284;22634;-78
2022/10/10 05:43:45;;;;;;;25.40;16.10;;;;;;;3.88;99.79;101640.35;88610;1299;22115;-78
2022/10/10 05:45:51;;;;;;;21.90;14.90;;;;;;;4.02;99.43;101637.90;88612;1305;22104;-76
2022/10/10 05:47:57;;;;;;;21.30;15.10;;;;;;;4.18;98.92;101636.30;88540;1298;22104;-76
2022/10/10 05:50:03;;;;;;;23.30;14.70;;;;;;;4.30;99.11;101635.55;88615;1304;22132;-76
2022/10/10 05:52:09;;;;;;;20.20;14.40;;;;;;;4.38;98.77;101644.61;88756;1284;22070;-76
2022/10/10 05:54:14;;;;;;;30.00;15.40;;;;;;;4.43;98.34;101639.95;88780;1297;22132;-76
2022/10/10 05:56:20;;;;;;;21.10;14.90;;;;;;;4.47;98.58;101636.53;86593;1290;1002916;-76
2022/10/10 05:58:27;;;;;;;23.50;15.40;;;;;;;4.52;98.09;101635.73;88808;1296;22623;-76
2022/10/10 06:00:33;;;;;;;20.30;13.90;;;;;;;4.57;98.00;101630.05;88626;1304;22062;-76
2022/10/10 06:02:39;;;;;;;29.40;17.20;;;;;;;4.63;98.26;101628.02;88828;1296;22181;-76
2022/10/10 06:04:45;;;;;;;30.20;19.00;;;;;;;4.71;98.31;101628.23;88818;1294;22110;-76
2022/10/10 06:06:51;;;;;;;25.30;16.80;;;;;;;4.85;98.73;101630.74;88804;1296;22640;-76
2022/10/10 06:08:57;;;;;;;25.90;16.10;;;;;;;5.02;99.30;101629.10;88626;1304;22073;-76
2022/10/10 06:11:06;;;;;;;24.80;15.50;;;;;;;5.12;99.12;101626.21;88734;1299;22080;-76
2022/10/10 06:13:13;;;;;;;22.80;14.90;;;;;;;5.19;98.97;101626.58;88626;1304;22118;-76
2022/10/10 06:15:19;;;;;;;28.60;18.20;;;;;;;5.24;98.79;101626.95;88705;1295;22096;-76
2022/10/10 06:17:25;;;;;;;22.90;15.00;;;;;;;5.29;98.43;101629.73;88622;1304;22138;-76
2022/10/10 06:19:31;;;;;;;27.30;14.90;;;;;;;5.33;98.31;101624.23;88826;1296;22056;-76
2022/10/10 06:21:37;;;;;;;22.80;14.70;;;;;;;5.38;98.31;101626.48;88636;1294;22075;-76
2022/10/10 06:23:43;;;;;;;26.10;15.80;;;;;;;5.44;98.24;101628.92;88720;1299;22735;-76
2022/10/10 06:25:50;;;;;;;21.10;13.80;;;;;;;5.50;98.22;101629.29;88713;1299;22726;-76
2022/10/10 06:27:56;;;;;;;16.80;14.20;;;;;;;5.57;98.02;101627.94;88607;1304;22087;-76
2022/10/10 06:30:02;;;;;;;25.70;14.70;;;;;;;5.62;98.18;101627.77;88690;1298;22712;-72
2022/10/10 06:32:08;;;;;;;20.80;14.90;;;;;;;5.69;98.10;101624.84;87869;1302;1002165;-76
2022/10/10 06:34:14;;;;;;;19.60;14.50;;;;;;;5.77;98.00;101621.57;88709;1291;22130;-75
2022/10/10 06:36:20;;;;;;;23.80;13.60;;;;;;;5.85;98.09;101619.68;88591;1298;22059;-75
2022/10/10 06:38:26;;;;;;;18.80;14.40;;;;;;;5.92;98.05;101616.77;88815;1287;22614;-76
2022/10/10 06:40:32;;;;;;;25.30;15.70;;;;;;;6.00;97.83;101616.77;88700;1299;22631;-76
2022/10/10 06:42:41;;;;;;;19.90;14.20;;;;;;;6.07;97.78;101621.30;88597;1298;22149;-75
2022/10/10 06:44:47;;;;;;;20.60;14.10;;;;;;;6.15;97.64;101624.75;88841;1294;22057;-75
2022/10/10 06:46:54;;;;;;;23.50;15.10;;;;;;;6.24;97.76;101623.55;88611;1304;22070;-75
2022/10/10 06:49:00;;;;;;;25.00;16.60;;;;;;;6.35;97.86;101624.07;88456;1306;22808;-75
2022/10/10 06:51:07;;;;;;;27.20;16.50;;;;;;;6.44;97.72;101619.89;88821;1286;22028;-76
2022/10/10 06:53:13;;;;;;;21.40;15.30;;;;;;;6.52;97.44;101613.65;88590;1304;22046;-76
2022/10/10 06:55:19;;;;;;;24.40;17.80;;;;;;;6.60;97.40;101615.36;88601;1304;22650;-76
2022/10/10 06:57:25;;;;;;;22.60;16.40;;;;;;;6.67;97.10;101612.91;88628;1304;22596;-76
2022/10/10 06:59:31;;;;;;;24.50;17.60;;;;;;;6.76;97.18;101613.26;88839;1278;22031;-76
2022/10/10 07:01:36;;;;;;;26.00;19.50;;;;;;;6.84;96.92;101610.80;88740;1299;22065;-76
2022/10/10 07:03:43;;;;;;;25.60;16.70;;;;;;;6.92;97.04;101607.14;88610;1289;22521;-76
2022/10/10 07:05:53;;;;;;;28.80;17.50;;;;;;;7.01;96.90;101605.54;88837;1295;22008;-76
2022/10/10 07:08:01;;;;;;;20.60;15.20;;;;;;;7.09;96.68;101601.52;88617;1305;22210;-76
2022/10/10 07:10:10;;;;;;;21.10;15.60;;;;;;;7.18;96.55;101606.52;88832;1286;22023;-76
2022/10/10 07:12:16;;;;;;;25.10;15.90;;;;;;;7.28;96.42;101609.78;88589;1305;22085;-77
2022/10/10 07:14:23;;;;;;;22.00;16.40;;;;;;;7.37;96.33;101608.52;88595;1296;22049;-77
2022/10/10 07:16:29;;;;;;;24.80;17.20;;;;;;;7.48;96.22;101609.16;88604;1298;22735;-77
2022/10/10 07:18:36;;;;;;;24.70;15.50;;;;;;;7.63;95.86;101605.42;88617;1282;22053;-76
2022/10/10 07:20:44;;;;;;;24.20;16.30;;;;;;;7.83;95.79;101601.98;88445;1306;22094;-76
2022/10/10 07:22:49;;;;;;;19.90;15.50;;;;;;;7.97;95.38;101603.97;88763;1294;22132;-76
2022/10/10 07:24:55;;;;;;;21.70;15.40;;;;;;;8.09;94.98;101603.71;88811;1296;22605;-76
2022/10/10 07:27:01;;;;;;;20.50;15.20;;;;;;;8.27;94.68;101599.03;88593;1299;22088;-76
2022/10/10 07:29:07;;;;;;;21.00;14.40;;;;;;;8.59;94.74;101597.54;88708;1299;22057;-76
2022/10/10 07:31:15;;;;;;;20.90;13.90;;;;;;;9.01;94.68;101599.34;88822;1287;22003;-76
2022/10/10 07:33:20;;;;;;;21.00;14.30;;;;;;;9.56;95.23;101602.11;88600;1298;22172;-75
2022/10/10 07:35:26;;;;;;;17.40;13.40;;;;;;;10.14;95.12;101597.38;88828;1296;22673;-76
2022/10/10 07:37:32;;;;;;;15.00;12.30;;;;;;;10.89;95.08;101588.89;88616;1304;22123;-76
2022/10/10 07:39:40;;;;;;;15.90;12.60;;;;;;;11.70;92.45;101588.20;88587;1305;22129;-76
2022/10/10 07:41:46;;;;;;;15.30;11.90;;;;;;;12.57;88.57;101585.35;88813;1296;22085;-76
2022/10/10 07:43:56;;;;;;;11.20;9.40;;;;;;;13.34;83.58;101594.42;88831;1296;22499;-76
2022/10/10 07:46:00;;;;;;;;;;;;;;;14.05;80.84;101590.60;88845;1296;22292;-77
2022/10/10 07:48:06;;;;;;;9.60;8.60;;;;;;;14.69;78.57;101586.13;88727;1299;22060;-76
2022/10/10 07:50:12;;;;;;;14.20;9.30;;;;;;;15.45;76.30;101579.27;88640;1304;22612;-77
2022/10/10 07:52:18;;;;;;;10.30;8.30;;;;;;;16.09;70.31;101579.69;88722;1299;22261;-77
2022/10/10 07:54:23;;;;;;;9.60;7.70;;;;;;;16.62;68.76;101576.74;88824;1286;22123;-77
2022/10/10 07:56:29;;;;;;;12.00;8.80;;;;;;;17.19;68.00;101577.00;88847;1296;22569;-77
2022/10/10 07:58:35;;;;;;;11.50;8.90;;;;;;;17.82;65.49;101575.41;88842;1296;22116;-78
2022/10/10 08:00:41;;;;;;;8.50;7.70;;;;;;;18.39;62.82;101575.56;88840;1288;22093;-77
2022/10/10 08:02:47;;;;;;;8.70;7.90;;;;;;;18.89;61.51;101566.75;88614;1304;22196;-77
2022/10/10 08:04:52;;;;;;;8.70;7.50;;;;;;;19.39;58.83;101568.98;88823;1292;22037;-77
2022/10/10 08:06:58;;;;;;;10.70;7.50;;;;;;;19.74;56.99;101570.44;88609;1299;22061;-77
2022/10/10 08:09:03;;;;;;;12.60;8.40;;;;;;;20.01;55.69;101570.80;88702;1290;22073;-77
2022/10/10 08:11:10;;;;;;;11.40;8.00;;;;;;;20.13;54.99;101567.60;88824;1285;22076;-77
2022/10/10 08:13:16;;;;;;;8.60;7.70;;;;;;;19.96;53.18;101570.18;88791;1296;22671;-76
2022/10/10 08:15:22;;;;;;;8.60;6.90;;;;;;;19.55;52.05;101567.21;88617;1305;22065;-74
2022/10/10 08:17:28;;;;;;;8.60;7.50;;;;;;;19.08;52.68;101569.27;88742;1294;22103;-75
2022/10/10 08:19:33;;;;;;;10.80;7.60;;;;;;;18.60;52.86;101570.21;88585;1298;22126;-75
2022/10/10 08:21:39;;;;;;;9.50;7.60;;;;;;;18.04;53.34;101572.59;88605;1297;22069;-75
2022/10/10 08:23:45;;;;;;;9.70;7.20;;;;;;;17.51;53.50;101569.34;88791;1296;22118;-75
2022/10/10 08:25:51;;;;;;;11.40;9.40;;;;;;;17.06;54.50;101570.02;88836;1296;22089;-75
2022/10/10 08:27:56;;;;;;;9.70;7.70;;;;;;;16.67;54.70;101567.38;88813;1296;22036;-77
2022/10/10 08:30:02;;;;;;;10.00;8.10;;;;;;;16.27;55.69;101561.16;88810;1296;22032;-77
2022/10/10 08:32:09;;;;;;;8.40;7.60;;;;;;;15.97;56.25;101558.39;88611;1303;22115;-77
2022/10/10 08:34:15;;;;;;;10.00;8.30;;;;;;;15.70;56.94;101563.35;88622;1298;22033;-77
2022/10/10 08:36:22;;;;;;;12.00;8.70;;;;;;;15.50;57.69;101562.56;88732;1299;22719;-77
2022/10/10 08:38:28;;;;;;;11.70;7.50;;;;;;;15.31;57.71;101559.40;88787;1287;22121;-77
2022/10/10 08:40:33;;;;;;;8.90;7.70;;;;;;;15.08;58.07;101554.69;88701;1287;22644;-77
2022/10/10 08:42:42;;;;;;;9.70;7.60;;;;;;;14.92;58.60;101550.02;88723;1299;22186;-77
2022/10/10 08:44:54;;;;;;;11.70;8.40;;;;;;;14.77;59.20;101545.31;88828;1296;22092;-77
2022/10/10 08:47:02;;;;;;;10.60;7.80;;;;;;;14.72;58.59;101544.42;88837;1285;22594;-78
2022/10/10 08:49:20;;;;;;;8.80;7.30;;;;;;;14.72;59.21;101540.90;88600;1299;22094;-78
2022/10/10 08:51:28;;;;;;;9.40;7.50;;;;;;;14.72;59.28;101536.52;88600;1303;22670;-78
2022/10/10 08:53:34;;;;;;;9.50;7.30;;;;;;;14.75;59.59;101534.15;88599;1303;22039;-78
2022/10/10 08:55:42;;;;;;;10.20;7.90;;;;;;;14.80;59.69;101537.10;88808;1285;22634;-78
2022/10/10 08:57:51;;;;;;;10.10;6.90;;;;;;;14.83;58.73;101533.67;88624;1303;22047;-77
2022/10/10 08:59:59;;;;;;;11.90;7.30;;;;;;;14.83;58.84;101530.33;88812;1282;22542;-78
2022/10/10 09:02:30;;;;;;;8.10;7.00;;;;;;;14.92;59.31;101528.40;88585;1299;22096;-78
2022/10/10 09:04:38;;;;;;;8.80;7.30;;;;;;;15.08;60.12;101518.10;88825;1284;22149;-78
2022/10/10 09:06:55;;;;;;;9.00;6.40;;;;;;;15.44;60.47;101517.61;88716;1299;22049;-77
2022/10/10 09:09:07;;;;;;;9.30;6.80;;;;;;;16.03;59.29;101512.02;88622;1303;22056;-78
2022/10/10 09:11:21;;;;;;;8.10;6.10;;;;;;;16.67;57.86;101512.41;88807;1296;22721;-78
2022/10/10 09:13:34;;;;;;;9.10;6.90;;;;;;;17.36;56.51;101507.75;88838;1287;22086;-78
2022/10/10 09:15:45;;;;;;;11.70;5.70;;;;;;;18.09;55.78;101501.52;88634;1303;22057;-78
2022/10/10 09:17:59;;;;;;;7.90;5.20;;;;;;;18.81;54.87;101495.81;88845;1287;22049;-78
2022/10/10 09:20:17;;;;;;;6.90;6.20;;;;;;;19.41;52.29;101491.00;88643;1298;22044;-78
2022/10/10 09:22:26;;;;;;;5.90;5.30;;;;;;;19.90;51.22;101486.98;88772;1275;22075;-78
2022/10/10 09:24:35;;;;;;;7.00;5.00;;;;;;;20.38;50.12;101480.52;88774;1294;22049;-78
2022/10/10 09:26:46;;;;;;;6.10;4.80;;;;;;;20.84;49.00;101485.65;88624;1291;22082;-76
2022/10/10 09:28:53;;;;;;;5.60;5.10;;;;;;;21.23;47.82;101487.58;88610;1298;22631;-76
2022/10/10 09:30:59;;;;;;;5.60;4.20;;;;;;;21.52;46.14;101486.44;88808;1294;22039;-76
2022/10/10 09:33:08;;;;;;;6.30;4.00;;;;;;;21.71;44.83;101483.95;88792;1291;22139;-77
2022/10/10 09:35:20;;;;;;;6.80;3.70;;;;;;;21.88;43.68;101486.69;88618;1303;22198;-77
2022/10/10 09:37:33;;;;;;;4.50;4.00;;;;;;;21.88;43.18;101481.48;88596;1302;22081;-77
2022/10/10 09:39:43;;;;;;;4.90;3.70;;;;;;;22.04;42.98;101479.90;88818;1296;22622;-77
2022/10/10 09:41:53;;;;;;;6.70;3.50;;;;;;;22.18;43.39;101481.44;88792;1294;21988;-76
2022/10/10 09:44:03;;;;;;;4.90;4.40;;;;;;;22.11;41.44;101478.16;88810;1282;22114;-76
2022/10/10 09:46:09;;;;;;;5.60;3.00;;;;;;;21.93;41.54;101471.55;88613;1296;22673;-76